Aérodrome :
LOGIN :

S'inscrire | Disclaimer

   EN    FR    IT 

 










Légende :    VFR   VFR Marginal   IFR   IFR Intensif   IFR Très Intensif
Visi : 
Plafond : 
>= 8 km
>= 3000ft
5 à 8 km
1000 à 3000 ft
1500m à 5 km
500 à 1000 ft
800 à 1500m
200 à 500 ft
< 800m
< 200 ft
Symboles :   Orages  Brouillard  Fortes neiges  Fortes précipitations  Vent > 20 kt
SIGMETs :   Divers  Orages  Givrage  Turbulence  Onde Orograph.  Cendres Volcan.







- Altitude de l'aérodrome : 1585 ft
- Code IATA : SIR


LSGS - Sion

DERNIER METAR :
  • 210720Z 26004KT 220V290 9999 FEW020 SCT060 BKN100 13/09 Q1014

METARs EXPIRÉS :
  • 210650Z VRB03KT 9999 FEW020 SCT060 BKN100 13/09 Q1013
  • 210620Z VRB01KT 9999 FEW020 SCT065 BKN100 12/09 Q1013
  • 210550Z 26005KT 9999 -RA FEW015 SCT060 BKN100 12/09 Q1013
  • 210520Z 24003KT 210V270 9999 FEW015 SCT060 BKN100 12/10 Q1013
  • 210450Z VRB01KT 9999 SCT015 SCT065 BKN100 12/09 Q1013
  • 210420Z AUTO VRB01KT 9999 FEW060 SCT100 12/09 Q1013

TAF TAF LSGS
Valide du 21 à 06h jusqu'au 21 à 15h UTC


210525Z 2106/2115 VRB03KT 9999 FEW015 SCT070
BECMG 2109/2112 25015KT
Pas de NOTAMs connus pour ce terrain.



MET'MAP, la Météo Aéronautique d'un coup d'oeil ! - Copyright ORBIFLY Décembre 2007 - Disclaimer

ORBIFLY MET'MAP TEAM :

Programmation & Développement : Alexandra Zaïnal
Conception & Développement : Baudouin d'Aumeries
Co-Programmation & Développement : Marc-Olivier Méhu
Soutien technique & logistique : Manuel Goepfert

Contact : metmap@orbifly.com




SOURCES & CREDITS :

   NOAA